Time;durP1;ratioP1;P1;durP2;ratioP2;P2;SDS_P1;SDS_P2;PMS_P1;PMS_P2;Temp;Humidity;BMP_temperature;BMP_pressure;BME280_temperature;BME280_humidity;BME280_pressure;Samples;Min_cycle;Max_cycle;Signal;HPM_P1;HPM_P2
2022/10/27 00:00:40;;;;;;;4.63;2.17;;;16.40;99.90;;;;;;2082919;28;20021;-72
2022/10/27 00:01:41;;;;;;;4.65;1.85;;;16.40;99.90;;;;;;2084017;28;20376;-72
2022/10/27 00:02:42;;;;;;;10.48;2.38;;;16.40;99.90;;;;;;2080923;28;20021;-73
2022/10/27 00:03:42;;;;;;;3.28;1.45;;;16.30;99.90;;;;;;2083482;28;20037;-72
2022/10/27 00:04:43;;;;;;;3.72;1.95;;;16.40;99.90;;;;;;2084188;28;20595;-72
2022/10/27 00:05:45;;;;;;;6.57;2.45;;;16.30;99.90;;;;;;2084148;28;20400;-72
2022/10/27 00:06:49;;;;;;;5.68;1.80;;;16.30;99.90;;;;;;2084164;28;20465;-72
2022/10/27 00:07:49;;;;;;;4.28;2.20;;;16.30;99.90;;;;;;2082922;28;20038;-72
2022/10/27 00:08:51;;;;;;;3.85;1.70;;;16.30;99.90;;;;;;2082809;28;20057;-72
2022/10/27 00:09:51;;;;;;;5.50;2.03;;;16.30;99.90;;;;;;2083515;28;20811;-72
2022/10/27 00:10:59;;;;;;;3.17;1.83;;;16.30;99.90;;;;;;2086633;28;20448;-72
2022/10/27 00:11:59;;;;;;;2.78;2.05;;;16.20;99.90;;;;;;2084374;28;20033;-72
2022/10/27 00:13:00;;;;;;;5.30;2.22;;;16.20;99.90;;;;;;2081136;28;20033;-72
2022/10/27 00:14:00;;;;;;;4.05;1.80;;;16.20;99.90;;;;;;2083676;28;20079;-72
2022/10/27 00:15:01;;;;;;;7.55;2.30;;;16.20;99.90;;;;;;2083665;28;20037;-72
2022/10/27 00:16:09;;;;;;;5.15;2.45;;;16.20;99.90;;;;;;2081744;28;20034;-72
2022/10/27 00:17:09;;;;;;;4.13;1.95;;;16.20;99.90;;;;;;2082675;28;20491;-72
2022/10/27 00:18:11;;;;;;;3.08;1.90;;;16.20;99.90;;;;;;2082863;28;20029;-72
2022/10/27 00:19:11;;;;;;;5.43;2.40;;;16.10;99.90;;;;;;2084713;28;20105;-72
2022/10/27 00:20:12;;;;;;;6.53;2.22;;;16.10;99.90;;;;;;2084851;28;20021;-72
2022/10/27 00:21:18;;;;;;;3.92;1.83;;;16.10;99.90;;;;;;2084697;28;20056;-72
2022/10/27 00:22:19;;;;;;;4.95;2.22;;;16.10;99.90;;;;;;2083080;28;20104;-72
2022/10/27 00:23:19;;;;;;;5.28;2.47;;;16.10;99.90;;;;;;2086908;28;20563;-72
2022/10/27 00:24:20;;;;;;;4.43;2.03;;;16.10;99.90;;;;;;2085404;28;20024;-72
2022/10/27 00:25:21;;;;;;;5.13;1.88;;;16.10;99.90;;;;;;2084721;28;20037;-72
2022/10/27 00:26:21;;;;;;;4.32;2.00;;;16.10;99.90;;;;;;2079942;28;20036;-72
2022/10/27 00:27:22;;;;;;;5.93;2.22;;;16.10;99.90;;;;;;2085211;28;20488;-72
2022/10/27 00:28:23;;;;;;;3.25;1.95;;;16.00;99.90;;;;;;2083289;28;20112;-72
2022/10/27 00:29:24;;;;;;;3.42;2.13;;;16.00;99.90;;;;;;2083022;28;20025;-72
2022/10/27 00:30:24;;;;;;;4.25;2.28;;;16.00;99.90;;;;;;2084196;28;20065;-72
2022/10/27 00:31:25;;;;;;;3.60;2.10;;;16.00;99.90;;;;;;2082489;28;20473;-72
2022/10/27 00:32:25;;;;;;;4.97;2.25;;;16.00;99.90;;;;;;2082308;28;20057;-72
2022/10/27 00:33:26;;;;;;;5.38;2.40;;;16.00;99.90;;;;;;2083348;28;20026;-72
2022/10/27 00:34:27;;;;;;;4.50;2.22;;;16.00;99.90;;;;;;2084311;28;20024;-72
2022/10/27 00:35:30;;;;;;;5.60;2.35;;;15.90;99.90;;;;;;2084944;28;20032;-72
2022/10/27 00:36:31;;;;;;;2.75;2.03;;;15.90;99.90;;;;;;2086775;28;20025;-72
2022/10/27 00:37:31;;;;;;;4.05;2.38;;;15.90;99.90;;;;;;2084933;28;20045;-72
2022/10/27 00:38:32;;;;;;;3.40;2.20;;;15.90;99.90;;;;;;2081310;28;20092;-72
2022/10/27 00:39:33;;;;;;;5.20;2.38;;;15.90;99.90;;;;;;2083637;28;20488;-72
2022/10/27 00:40:37;;;;;;;3.45;2.40;;;15.90;99.90;;;;;;2083878;28;20380;-72
2022/10/27 00:41:40;;;;;;;4.32;2.75;;;15.90;99.90;;;;;;2082708;28;20475;-72
2022/10/27 00:42:40;;;;;;;7.55;2.80;;;15.90;99.90;;;;;;2083375;28;20098;-72
2022/10/27 00:43:41;;;;;;;7.40;2.55;;;15.80;99.90;;;;;;2082188;28;20033;-71
2022/10/27 00:44:44;;;;;;;6.15;2.40;;;15.80;99.90;;;;;;2083984;28;20504;-72
2022/10/27 00:45:45;;;;;;;4.00;2.47;;;15.80;99.90;;;;;;2082870;28;20120;-72
2022/10/27 00:46:46;;;;;;;2.35;1.90;;;15.80;99.90;;;;;;2086614;28;20033;-72
2022/10/27 00:47:47;;;;;;;6.45;3.03;;;15.80;99.90;;;;;;2086113;28;20107;-72
2022/10/27 00:48:50;;;;;;;11.38;3.35;;;15.80;99.90;;;;;;2083195;28;20067;-71
2022/10/27 00:50:11;;;;;;;5.22;2.00;;;15.80;99.90;;;;;;2085606;28;20033;-72
2022/10/27 00:51:15;;;;;;;5.45;2.20;;;15.80;99.90;;;;;;2085782;28;20028;-71
2022/10/27 00:52:45;;;;;;;4.03;1.88;;;15.70;99.90;;;;;;2084848;28;20495;-71
2022/10/27 00:53:46;;;;;;;8.40;2.85;;;15.70;99.90;;;;;;2091865;28;20032;-71
2022/10/27 00:54:47;;;;;;;7.57;2.58;;;15.70;99.90;;;;;;2090496;28;20132;-71
2022/10/27 00:55:48;;;;;;;11.27;3.05;;;15.60;99.90;;;;;;2084108;28;20025;-72
2022/10/27 00:56:51;;;;;;;5.65;2.38;;;15.70;99.90;;;;;;2082248;28;20036;-71
2022/10/27 00:57:55;;;;;;;7.40;2.83;;;15.60;99.90;;;;;;2082357;28;20039;-71
2022/10/27 00:58:56;;;;;;;10.15;2.42;;;15.60;99.90;;;;;;2082330;28;20091;-71
2022/10/27 00:59:58;;;;;;;5.25;2.17;;;15.60;99.90;;;;;;2086032;28;20035;-72
2022/10/27 01:01:00;;;;;;;5.32;2.00;;;15.60;99.90;;;;;;2085794;28;20028;-72
2022/10/27 01:02:01;;;;;;;5.45;2.60;;;15.60;99.90;;;;;;2084657;28;20535;-71
2022/10/27 01:03:02;;;;;;;4.85;2.20;;;15.60;99.90;;;;;;2083105;28;20116;-72
2022/10/27 01:04:04;;;;;;;5.78;2.60;;;15.60;99.90;;;;;;2083831;28;20032;-71
2022/10/27 01:05:11;;;;;;;4.43;2.08;;;15.60;99.90;;;;;;2082407;28;20029;-71
2022/10/27 01:06:12;;;;;;;5.88;2.00;;;15.60;99.90;;;;;;2082876;28;20103;-71
2022/10/27 01:07:17;;;;;;;12.02;2.92;;;15.60;99.90;;;;;;2082465;28;20106;-71
2022/10/27 01:08:17;;;;;;;9.27;2.45;;;15.60;99.90;;;;;;2082658;28;20021;-71
2022/10/27 01:09:20;;;;;;;6.93;2.58;;;15.60;99.90;;;;;;2085593;28;20025;-71
2022/10/27 01:10:21;;;;;;;5.60;2.30;;;15.60;99.90;;;;;;2086485;28;20467;-71
2022/10/27 01:11:22;;;;;;;5.93;2.20;;;15.60;99.90;;;;;;2083427;28;20369;-72
2022/10/27 01:12:22;;;;;;;4.15;2.35;;;15.60;99.90;;;;;;2080670;28;20070;-71
2022/10/27 01:13:23;;;;;;;7.60;2.28;;;15.60;99.90;;;;;;2083083;28;20037;-71
2022/10/27 01:14:25;;;;;;;8.35;2.60;;;15.60;99.90;;;;;;2083748;28;21002;-71
2022/10/27 01:15:41;;;;;;;9.07;2.47;;;15.60;99.90;;;;;;2084562;28;20648;-71
2022/10/27 01:17:06;;;;;;;7.95;2.60;;;15.60;99.90;;;;;;2082160;28;20100;-72
2022/10/27 01:18:30;;;;;;;4.22;2.15;;;15.60;99.90;;;;;;2084149;28;20025;-71
2022/10/27 01:19:43;;;;;;;4.53;2.20;;;15.50;99.90;;;;;;2082485;28;20025;-71
2022/10/27 01:21:14;;;;;;;4.40;1.90;;;15.50;99.90;;;;;;2082518;28;20443;-72
2022/10/27 01:22:21;;;;;;;8.27;2.38;;;15.50;99.90;;;;;;2081743;28;20021;-72
2022/10/27 01:23:49;;;;;;;4.88;1.95;;;15.50;99.90;;;;;;2082692;28;20017;-71
2022/10/27 01:25:11;;;;;;;4.78;2.13;;;15.50;99.90;;;;;;2083885;28;20017;-71
2022/10/27 01:26:37;;;;;;;6.22;2.10;;;15.50;99.90;;;;;;2082603;28;20765;-72
2022/10/27 01:28:14;;;;;;;6.13;2.13;;;15.50;99.90;;;;;;2080900;28;20038;-71
2022/10/27 01:29:36;;;;;;;6.72;2.25;;;15.50;99.90;;;;;;2083386;28;20457;-71
2022/10/27 01:31:00;;;;;;;4.32;2.35;;;15.50;99.90;;;;;;2082627;28;20041;-72
2022/10/27 01:32:12;;;;;;;6.30;2.22;;;15.50;99.90;;;;;;2083841;28;20033;-72
2022/10/27 01:33:21;;;;;;;5.15;2.08;;;15.50;99.90;;;;;;2081186;28;20029;-71
2022/10/27 01:34:45;;;;;;;4.20;2.08;;;15.50;99.90;;;;;;2082953;28;20068;-72
2022/10/27 01:35:55;;;;;;;5.68;1.85;;;15.60;99.90;;;;;;2083544;28;20029;-71
2022/10/27 01:37:19;;;;;;;7.78;2.40;;;15.60;99.90;;;;;;2082368;28;20039;-71
2022/10/27 01:38:26;;;;;;;6.20;2.53;;;15.60;99.90;;;;;;2082445;28;20022;-72
2022/10/27 01:39:33;;;;;;;5.57;2.25;;;15.60;99.90;;;;;;2082554;28;20025;-72
2022/10/27 01:41:01;;;;;;;6.13;2.60;;;15.60;99.90;;;;;;2082445;28;20017;-71
2022/10/27 01:42:08;;;;;;;5.78;2.15;;;15.60;99.90;;;;;;2082682;28;20075;-71
2022/10/27 01:43:14;;;;;;;5.75;2.30;;;15.60;99.90;;;;;;2083149;28;20034;-72
2022/10/27 01:44:23;;;;;;;5.90;2.25;;;15.70;99.90;;;;;;2082988;28;20108;-71
2022/10/27 01:45:28;;;;;;;6.28;2.70;;;15.70;99.90;;;;;;2082699;28;20196;-71
2022/10/27 01:46:28;;;;;;;5.22;2.22;;;15.70;99.90;;;;;;2085441;28;20427;-72
2022/10/27 01:47:30;;;;;;;5.13;2.05;;;15.70;99.90;;;;;;2086568;28;20025;-71
2022/10/27 01:48:35;;;;;;;6.40;2.33;;;15.70;99.90;;;;;;2082814;28;20059;-72
2022/10/27 01:49:41;;;;;;;4.75;2.25;;;15.70;99.90;;;;;;2082351;28;20025;-72
2022/10/27 01:50:42;;;;;;;8.38;2.25;;;15.70;99.90;;;;;;2083336;28;20029;-71
2022/10/27 01:51:43;;;;;;;5.55;2.38;;;15.70;99.90;;;;;;2082485;28;20033;-72
2022/10/27 01:52:46;;;;;;;5.90;2.42;;;15.70;99.90;;;;;;2082035;28;20067;-72
2022/10/27 01:53:50;;;;;;;7.53;2.33;;;15.80;99.90;;;;;;2084143;28;20039;-72
2022/10/27 01:54:51;;;;;;;8.43;2.53;;;15.80;99.90;;;;;;2086573;28;20021;-71
2022/10/27 01:56:03;;;;;;;5.35;1.98;;;15.70;99.90;;;;;;2084986;28;20063;-72
2022/10/27 01:57:25;;;;;;;4.63;2.20;;;15.80;99.90;;;;;;2084783;28;20040;-71
2022/10/27 01:58:44;;;;;;;3.92;2.25;;;15.70;99.90;;;;;;2083885;28;20025;-72
2022/10/27 01:59:59;;;;;;;5.13;1.92;;;15.70;99.90;;;;;;2084407;28;20036;-71
2022/10/27 02:01:18;;;;;;;6.05;2.58;;;15.70;99.90;;;;;;2084941;28;20021;-72
2022/10/27 02:02:46;;;;;;;7.70;2.67;;;15.70;99.90;;;;;;2083337;28;20017;-72
2022/10/27 02:04:21;;;;;;;6.45;2.17;;;15.70;99.90;;;;;;2083959;28;20096;-71
2022/10/27 02:05:34;;;;;;;4.03;1.98;;;15.70;99.90;;;;;;2084640;28;20048;-72
2022/10/27 02:06:46;;;;;;;8.68;2.15;;;15.70;99.90;;;;;;2091381;28;20029;-72
2022/10/27 02:08:04;;;;;;;5.40;2.28;;;15.70;99.90;;;;;;2090442;28;20043;-71
2022/10/27 02:09:34;;;;;;;9.07;3.10;;;15.70;99.90;;;;;;2085422;28;20024;-71
2022/10/27 02:10:44;;;;;;;3.88;2.10;;;15.70;99.90;;;;;;2085158;28;20032;-72
2022/10/27 02:11:50;;;;;;;4.10;2.45;;;15.70;99.90;;;;;;2083378;28;20061;-71
2022/10/27 02:12:51;;;;;;;10.18;2.20;;;15.70;99.90;;;;;;2084812;28;20041;-72
2022/10/27 02:13:54;;;;;;;7.45;2.38;;;15.60;99.90;;;;;;2083980;28;20116;-72
2022/10/27 02:14:58;;;;;;;7.13;2.00;;;15.70;99.90;;;;;;2081598;28;20041;-72
2022/10/27 02:16:05;;;;;;;5.10;2.00;;;15.70;99.90;;;;;;2085281;28;20545;-72
2022/10/27 02:17:09;;;;;;;5.38;2.03;;;15.70;99.90;;;;;;2084479;28;20029;-72
2022/10/27 02:18:15;;;;;;;7.68;2.60;;;15.70;99.90;;;;;;2084502;28;20554;-72
2022/10/27 02:19:28;;;;;;;6.30;2.47;;;15.70;99.90;;;;;;2083394;28;20854;-71
2022/10/27 02:20:33;;;;;;;3.95;1.92;;;15.70;99.90;;;;;;2083162;28;20020;-71
2022/10/27 02:21:36;;;;;;;8.45;2.45;;;15.70;99.90;;;;;;2083745;28;20388;-71
2022/10/27 02:22:38;;;;;;;7.00;2.20;;;15.70;99.90;;;;;;2087376;28;20029;-72
2022/10/27 02:23:40;;;;;;;4.95;2.10;;;15.70;99.90;;;;;;2074170;28;20638;-71
2022/10/27 02:24:41;;;;;;;6.25;2.28;;;15.70;99.90;;;;;;2084369;28;20032;-72
2022/10/27 02:25:50;;;;;;;5.70;2.30;;;15.70;99.90;;;;;;2082449;28;20104;-72
2022/10/27 02:27:00;;;;;;;6.55;2.17;;;15.70;99.90;;;;;;2082747;28;20020;-72
2022/10/27 02:28:06;;;;;;;4.13;1.95;;;15.70;99.90;;;;;;2081528;28;20610;-72
2022/10/27 02:29:17;;;;;;;4.93;2.22;;;15.70;99.90;;;;;;2084402;28;20496;-71
2022/10/27 02:30:18;;;;;;;3.63;2.10;;;15.70;99.90;;;;;;2091617;28;20078;-72
2022/10/27 02:31:24;;;;;;;8.38;2.42;;;15.70;99.90;;;;;;2090264;28;20091;-72
2022/10/27 02:32:27;;;;;;;5.75;2.28;;;15.70;99.90;;;;;;2089968;28;20037;-72
2022/10/27 02:33:28;;;;;;;6.35;2.47;;;15.70;99.90;;;;;;2091234;28;20029;-72
2022/10/27 02:34:30;;;;;;;4.15;1.83;;;15.70;99.90;;;;;;2081913;28;20037;-72
2022/10/27 02:35:31;;;;;;;6.22;2.58;;;15.70;99.90;;;;;;2084600;28;20029;-72
2022/10/27 02:36:31;;;;;;;7.93;2.30;;;15.70;99.90;;;;;;2084276;28;20031;-72
2022/10/27 02:37:36;;;;;;;3.47;1.92;;;15.70;99.90;;;;;;2082425;28;20045;-71
2022/10/27 02:38:36;;;;;;;11.00;2.53;;;15.70;99.90;;;;;;2083678;28;20025;-72
2022/10/27 02:39:37;;;;;;;7.28;2.30;;;15.70;99.90;;;;;;2091589;28;20029;-71
2022/10/27 02:40:37;;;;;;;3.53;2.13;;;15.70;99.90;;;;;;2091973;28;20108;-72
2022/10/27 02:41:38;;;;;;;7.38;2.17;;;15.70;99.90;;;;;;2084957;28;20025;-72
2022/10/27 02:42:38;;;;;;;4.30;2.20;;;15.70;99.90;;;;;;2085587;28;20032;-71
2022/10/27 02:43:39;;;;;;;6.25;2.13;;;15.70;99.90;;;;;;2086334;28;20036;-71
2022/10/27 02:44:40;;;;;;;8.85;2.53;;;15.70;99.90;;;;;;2085087;28;20773;-71
2022/10/27 02:45:40;;;;;;;4.40;1.90;;;15.70;99.90;;;;;;2083374;28;20030;-71
2022/10/27 02:46:41;;;;;;;7.78;2.05;;;15.70;99.90;;;;;;2085536;28;20091;-72
2022/10/27 02:47:41;;;;;;;4.72;2.00;;;15.80;99.90;;;;;;2084471;28;20527;-71
2022/10/27 02:48:42;;;;;;;8.52;2.53;;;15.80;99.90;;;;;;2084287;28;20099;-72
2022/10/27 02:49:43;;;;;;;4.32;1.88;;;15.70;99.90;;;;;;2083415;28;20029;-72
2022/10/27 02:50:43;;;;;;;7.40;2.97;;;15.80;99.90;;;;;;2085275;28;20029;-72
2022/10/27 02:51:44;;;;;;;3.25;1.95;;;15.80;99.90;;;;;;2086660;28;20147;-72
2022/10/27 02:52:44;;;;;;;6.63;2.67;;;15.80;99.90;;;;;;2084463;28;20114;-72
2022/10/27 02:53:45;;;;;;;4.18;1.92;;;15.80;99.90;;;;;;2083522;28;20481;-72
2022/10/27 02:54:47;;;;;;;8.25;2.80;;;15.80;99.90;;;;;;2085433;28;20033;-72
2022/10/27 02:55:47;;;;;;;6.45;2.00;;;15.80;99.90;;;;;;2083237;28;20024;-71
2022/10/27 02:56:48;;;;;;;3.50;1.83;;;15.70;99.90;;;;;;2083204;28;20033;-72
2022/10/27 02:57:48;;;;;;;3.40;2.00;;;15.70;99.90;;;;;;2084270;28;20021;-71
2022/10/27 02:58:49;;;;;;;3.70;1.70;;;15.80;99.90;;;;;;2085025;28;20064;-71
2022/10/27 02:59:50;;;;;;;3.13;1.63;;;15.80;99.90;;;;;;2083763;28;20484;-72
2022/10/27 03:00:54;;;;;;;3.55;2.00;;;15.70;99.90;;;;;;2082903;28;20028;-72
2022/10/27 03:01:55;;;;;;;5.57;2.03;;;15.80;99.90;;;;;;2084752;28;20390;-72
2022/10/27 03:02:55;;;;;;;6.35;2.25;;;15.70;99.90;;;;;;2084518;28;20029;-71
2022/10/27 03:03:56;;;;;;;4.68;1.95;;;15.70;99.90;;;;;;2083575;28;20032;-72
2022/10/27 03:04:56;;;;;;;6.18;2.42;;;15.70;99.90;;;;;;2084997;28;20029;-72
2022/10/27 03:05:57;;;;;;;4.88;2.28;;;15.70;99.90;;;;;;2086749;28;20025;-72
2022/10/27 03:06:58;;;;;;;7.63;2.75;;;15.70;99.90;;;;;;2086533;28;20405;-72
2022/10/27 03:07:58;;;;;;;4.68;2.08;;;15.70;99.90;;;;;;2085358;28;20094;-71
2022/10/27 03:08:59;;;;;;;5.72;2.40;;;15.70;99.90;;;;;;2084388;28;20035;-71
2022/10/27 03:09:59;;;;;;;3.28;1.70;;;15.70;99.90;;;;;;2087402;28;20484;-72
2022/10/27 03:11:00;;;;;;;8.30;2.38;;;15.70;99.90;;;;;;2078720;28;20623;-71
2022/10/27 03:12:00;;;;;;;3.85;1.80;;;15.80;99.90;;;;;;2084622;28;20385;-72
2022/10/27 03:13:01;;;;;;;8.35;1.95;;;15.80;99.90;;;;;;2085213;28;20563;-72
2022/10/27 03:14:01;;;;;;;7.10;2.03;;;15.80;99.90;;;;;;2086737;28;20472;-71
2022/10/27 03:15:02;;;;;;;2.63;1.70;;;15.70;99.90;;;;;;2083879;28;20124;-72
2022/10/27 03:16:03;;;;;;;4.80;2.38;;;15.80;99.90;;;;;;2083901;28;20040;-72
2022/10/27 03:17:03;;;;;;;4.13;1.90;;;15.80;99.90;;;;;;2085193;28;20032;-71
2022/10/27 03:18:04;;;;;;;2.72;1.67;;;15.80;99.90;;;;;;2083226;28;20509;-72
2022/10/27 03:19:05;;;;;;;7.63;2.03;;;15.80;99.90;;;;;;2081527;28;20025;-72
2022/10/27 03:20:05;;;;;;;6.40;2.10;;;15.80;99.90;;;;;;2084738;28;20029;-72
2022/10/27 03:21:06;;;;;;;4.32;1.60;;;15.80;99.90;;;;;;2084174;28;20038;-72
2022/10/27 03:22:06;;;;;;;4.70;1.92;;;15.80;99.90;;;;;;2084569;28;20034;-71
2022/10/27 03:23:07;;;;;;;5.10;1.52;;;15.80;99.90;;;;;;2083087;28;20021;-71
2022/10/27 03:24:07;;;;;;;8.70;2.00;;;15.80;99.90;;;;;;2083785;28;20022;-72
2022/10/27 03:25:14;;;;;;;5.32;2.03;;;15.80;99.90;;;;;;2083207;28;20919;-71
2022/10/27 03:26:14;;;;;;;5.95;1.90;;;15.80;99.90;;;;;;2082113;28;20017;-72
2022/10/27 03:27:15;;;;;;;6.90;2.38;;;15.80;99.90;;;;;;2083275;28;20124;-72
2022/10/27 03:28:15;;;;;;;7.35;1.88;;;15.80;99.90;;;;;;2083877;28;20029;-72
2022/10/27 03:29:16;;;;;;;3.20;2.00;;;15.80;99.90;;;;;;2082131;28;20125;-71
2022/10/27 03:30:16;;;;;;;6.70;2.10;;;15.80;99.90;;;;;;2084386;28;20030;-72
2022/10/27 03:31:17;;;;;;;6.18;1.73;;;15.80;99.90;;;;;;2085259;28;20033;-71
2022/10/27 03:32:17;;;;;;;5.95;1.98;;;15.80;99.90;;;;;;2084344;28;20037;-71
2022/10/27 03:33:18;;;;;;;5.93;2.38;;;15.80;99.90;;;;;;2083839;28;20041;-72
2022/10/27 03:34:18;;;;;;;14.07;2.10;;;15.80;99.90;;;;;;2083207;28;20029;-72
2022/10/27 03:35:19;;;;;;;5.47;1.83;;;15.70;99.90;;;;;;2087130;28;20025;-72
2022/10/27 03:36:20;;;;;;;8.32;2.30;;;15.80;99.90;;;;;;2086364;28;20052;-72
2022/10/27 03:37:20;;;;;;;5.65;1.98;;;15.80;99.90;;;;;;2083338;28;20021;-72
2022/10/27 03:38:21;;;;;;;6.10;1.90;;;15.80;99.90;;;;;;2083921;28;20025;-72
2022/10/27 03:39:21;;;;;;;6.75;1.95;;;15.70;99.90;;;;;;2082031;28;20469;-72
2022/10/27 03:40:22;;;;;;;6.65;2.05;;;15.80;99.90;;;;;;2085240;28;20025;-72
2022/10/27 03:41:23;;;;;;;4.18;1.90;;;15.70;99.90;;;;;;2085667;28;20384;-72
2022/10/27 03:42:23;;;;;;;7.32;2.22;;;15.80;99.90;;;;;;2083909;28;20074;-71
2022/10/27 03:43:24;;;;;;;11.10;2.15;;;15.70;99.90;;;;;;2083333;28;20017;-71
2022/10/27 03:44:24;;;;;;;9.15;2.08;;;15.80;99.90;;;;;;2084610;28;20174;-72
2022/10/27 03:45:26;;;;;;;7.55;2.20;;;15.80;99.90;;;;;;2084288;28;20742;-72
2022/10/27 03:46:27;;;;;;;3.63;1.80;;;15.70;99.90;;;;;;2084835;28;20029;-72
2022/10/27 03:47:27;;;;;;;6.05;2.33;;;15.80;99.90;;;;;;2082799;28;20764;-72
2022/10/27 03:48:28;;;;;;;5.60;2.20;;;15.70;99.90;;;;;;2084054;28;20025;-72
2022/10/27 03:49:28;;;;;;;3.40;2.05;;;15.70;99.90;;;;;;2084263;28;20029;-72
2022/10/27 03:50:29;;;;;;;6.15;1.95;;;15.70;99.90;;;;;;2082933;28;20029;-72
2022/10/27 03:51:30;;;;;;;5.30;1.67;;;15.80;99.90;;;;;;2085255;28;20060;-72
2022/10/27 03:52:30;;;;;;;5.28;2.17;;;15.70;99.90;;;;;;2085065;28;20032;-72
2022/10/27 03:53:31;;;;;;;3.47;1.80;;;15.70;99.90;;;;;;2085009;28;20036;-72
2022/10/27 03:54:31;;;;;;;6.72;2.10;;;15.70;99.90;;;;;;2084577;28;20036;-72
2022/10/27 03:55:34;;;;;;;8.65;2.50;;;15.70;99.90;;;;;;2083998;28;20041;-71
2022/10/27 03:56:34;;;;;;;4.20;1.95;;;15.70;99.90;;;;;;2083235;28;20024;-72
2022/10/27 03:57:35;;;;;;;5.47;2.10;;;15.70;99.90;;;;;;2085534;28;20052;-72
2022/10/27 03:58:35;;;;;;;11.13;2.22;;;15.70;99.90;;;;;;2085753;28;20465;-72
2022/10/27 03:59:36;;;;;;;6.43;1.75;;;15.70;99.90;;;;;;2092318;28;20428;-71
2022/10/27 04:00:36;;;;;;;5.93;1.77;;;15.70;99.90;;;;;;2084535;28;20033;-72
2022/10/27 04:01:37;;;;;;;5.00;1.80;;;15.70;99.90;;;;;;2084260;28;20112;-71
2022/10/27 04:02:37;;;;;;;4.03;1.85;;;15.70;99.90;;;;;;2083911;28;20039;-71
2022/10/27 04:03:38;;;;;;;6.32;2.03;;;15.70;99.90;;;;;;2083209;28;20028;-72
2022/10/27 04:04:39;;;;;;;8.35;2.40;;;15.60;99.90;;;;;;2082576;28;20457;-71
2022/10/27 04:05:39;;;;;;;5.28;2.28;;;15.70;99.90;;;;;;2084504;28;20580;-72
2022/10/27 04:06:40;;;;;;;8.45;2.03;;;15.70;99.90;;;;;;2086071;28;20105;-72
2022/10/27 04:07:40;;;;;;;3.67;2.00;;;15.70;99.90;;;;;;2083809;28;20434;-71
2022/10/27 04:08:41;;;;;;;4.68;1.92;;;15.70;99.90;;;;;;2083635;28;20163;-72
2022/10/27 04:09:41;;;;;;;8.30;2.22;;;15.70;99.90;;;;;;2084676;28;20037;-72
2022/10/27 04:10:42;;;;;;;6.05;2.10;;;15.70;99.90;;;;;;2084124;28;20041;-72
2022/10/27 04:11:42;;;;;;;4.70;2.10;;;15.70;99.90;;;;;;2083959;28;20067;-71
2022/10/27 04:12:48;;;;;;;4.15;2.08;;;15.70;99.90;;;;;;2083416;28;20477;-72
2022/10/27 04:13:48;;;;;;;7.05;2.60;;;15.70;99.90;;;;;;2086014;28;20037;-72
2022/10/27 04:14:49;;;;;;;4.93;1.90;;;15.70;99.90;;;;;;2085529;28;20180;-72
2022/10/27 04:15:50;;;;;;;4.80;1.85;;;15.70;99.90;;;;;;2082982;28;20037;-71
2022/10/27 04:16:51;;;;;;;7.47;1.77;;;15.70;99.90;;;;;;2083272;28;20037;-71
2022/10/27 04:17:53;;;;;;;5.00;1.90;;;15.70;99.90;;;;;;2083622;28;20083;-71
2022/10/27 04:18:54;;;;;;;7.50;1.83;;;15.70;99.90;;;;;;2083021;28;20029;-71
2022/10/27 04:19:54;;;;;;;3.45;1.88;;;15.70;99.90;;;;;;2083154;28;20028;-71
2022/10/27 04:20:59;;;;;;;5.60;1.85;;;15.70;99.90;;;;;;2076296;28;20025;-72
2022/10/27 04:22:00;;;;;;;4.75;1.83;;;15.70;99.90;;;;;;2085049;28;20035;-72
2022/10/27 04:23:01;;;;;;;4.20;1.70;;;15.70;99.90;;;;;;2082047;28;20036;-72
2022/10/27 04:24:02;;;;;;;5.65;2.05;;;15.70;99.90;;;;;;2084654;28;20461;-71
2022/10/27 04:25:02;;;;;;;9.60;2.15;;;15.70;99.90;;;;;;2083833;28;20393;-72
2022/10/27 04:26:03;;;;;;;10.50;1.92;;;15.60;99.90;;;;;;2082962;28;20084;-72
2022/10/27 04:27:04;;;;;;;4.22;1.60;;;15.70;99.90;;;;;;2082484;28;20032;-72
2022/10/27 04:28:06;;;;;;;4.60;1.98;;;15.70;99.90;;;;;;2081494;28;20028;-72
2022/10/27 04:29:06;;;;;;;3.38;1.73;;;15.70;99.90;;;;;;2083648;28;20044;-72
2022/10/27 04:30:08;;;;;;;5.88;1.88;;;15.70;99.90;;;;;;2082298;28;20052;-72
2022/10/27 04:31:08;;;;;;;5.20;2.28;;;15.70;99.90;;;;;;2083789;28;20048;-71
2022/10/27 04:32:09;;;;;;;6.03;1.80;;;15.70;99.90;;;;;;2082692;28;20037;-72
2022/10/27 04:33:09;;;;;;;4.95;2.25;;;15.70;99.90;;;;;;2085471;28;20024;-72
2022/10/27 04:34:10;;;;;;;6.45;2.53;;;15.70;99.90;;;;;;2085583;28;20112;-71
2022/10/27 04:35:10;;;;;;;3.88;2.00;;;15.70;99.90;;;;;;2082788;28;20032;-72
2022/10/27 04:36:11;;;;;;;4.60;1.77;;;15.70;99.90;;;;;;2082465;28;20025;-72
2022/10/27 04:37:12;;;;;;;5.90;2.08;;;15.70;99.90;;;;;;2082899;28;20444;-71
2022/10/27 04:38:12;;;;;;;5.18;2.45;;;15.70;99.90;;;;;;2084508;28;20021;-72
2022/10/27 04:39:14;;;;;;;6.43;2.30;;;15.70;99.90;;;;;;2086345;28;20144;-72
2022/10/27 04:40:14;;;;;;;6.97;2.33;;;15.60;99.90;;;;;;2085704;28;20013;-71
2022/10/27 04:41:15;;;;;;;6.10;2.58;;;15.60;99.90;;;;;;2084213;28;20065;-72
2022/10/27 04:42:15;;;;;;;3.65;2.30;;;15.70;99.90;;;;;;2082854;28;20021;-72
2022/10/27 04:43:16;;;;;;;7.18;2.00;;;15.60;99.90;;;;;;2083699;28;20024;-72
2022/10/27 04:44:16;;;;;;;4.35;1.88;;;15.60;99.90;;;;;;2086065;28;20472;-72
2022/10/27 04:45:17;;;;;;;7.70;2.25;;;15.60;99.90;;;;;;2084724;28;20017;-72
2022/10/27 04:46:18;;;;;;;6.43;2.10;;;15.60;99.90;;;;;;2083846;28;20025;-72
2022/10/27 04:47:18;;;;;;;6.55;2.38;;;15.60;99.90;;;;;;2084417;28;20052;-72
2022/10/27 04:48:19;;;;;;;5.10;1.90;;;15.60;99.90;;;;;;2086285;28;20056;-72
2022/10/27 04:49:19;;;;;;;9.18;2.03;;;15.60;99.90;;;;;;2086622;28;20024;-72
2022/10/27 04:50:21;;;;;;;3.53;1.40;;;15.60;99.90;;;;;;2083827;28;20588;-72
2022/10/27 04:51:22;;;;;;;3.97;2.25;;;15.60;99.90;;;;;;2083983;28;20393;-72
2022/10/27 04:52:22;;;;;;;6.68;1.80;;;15.60;99.90;;;;;;2084885;28;20068;-71
2022/10/27 04:53:23;;;;;;;3.17;1.90;;;15.60;99.90;;;;;;2083402;28;20119;-72
2022/10/27 04:54:23;;;;;;;5.18;1.83;;;15.60;99.90;;;;;;2084519;28;20029;-72
2022/10/27 04:55:25;;;;;;;4.65;2.20;;;15.60;99.90;;;;;;2083373;28;20028;-72
2022/10/27 04:56:25;;;;;;;7.25;2.00;;;15.60;99.90;;;;;;2082293;28;20029;-71
2022/10/27 04:57:26;;;;;;;6.13;2.10;;;15.60;99.90;;;;;;2083940;28;20039;-72
2022/10/27 04:58:26;;;;;;;2.03;1.45;;;15.60;99.90;;;;;;2086575;28;20102;-72
2022/10/27 04:59:27;;;;;;;8.32;2.70;;;15.60;99.90;;;;;;2082042;28;20025;-72
2022/10/27 05:00:28;;;;;;;5.40;1.80;;;15.60;99.90;;;;;;2083187;28;20033;-72
2022/10/27 05:01:28;;;;;;;6.30;2.10;;;15.60;99.90;;;;;;2083825;28;20034;-72
2022/10/27 05:02:29;;;;;;;8.95;2.50;;;15.60;99.90;;;;;;2082260;28;20029;-72
2022/10/27 05:03:29;;;;;;;5.53;2.30;;;15.60;99.90;;;;;;2084022;28;20756;-72
2022/10/27 05:04:30;;;;;;;9.25;2.80;;;15.60;99.90;;;;;;2084192;28;20029;-72
2022/10/27 05:05:30;;;;;;;8.15;2.13;;;15.60;99.90;;;;;;2084335;28;20030;-72
2022/10/27 05:06:31;;;;;;;5.28;2.22;;;15.60;99.90;;;;;;2082703;28;20036;-72
2022/10/27 05:07:31;;;;;;;4.82;2.67;;;15.60;99.90;;;;;;2082959;28;20496;-72
2022/10/27 05:08:32;;;;;;;6.38;2.50;;;15.50;99.90;;;;;;2083141;28;20051;-72
2022/10/27 05:09:33;;;;;;;5.80;2.10;;;15.60;99.90;;;;;;2083688;28;20021;-72
2022/10/27 05:10:34;;;;;;;5.53;2.30;;;15.60;99.90;;;;;;2082315;28;20021;-72
2022/10/27 05:11:34;;;;;;;6.63;2.35;;;15.60;99.90;;;;;;2083092;28;20462;-72
2022/10/27 05:12:35;;;;;;;6.68;2.08;;;15.50;99.90;;;;;;2083635;28;20485;-72
2022/10/27 05:13:35;;;;;;;5.68;2.10;;;15.50;99.90;;;;;;2083526;28;20028;-71
2022/10/27 05:14:36;;;;;;;4.82;2.10;;;15.50;99.90;;;;;;2083027;28;20040;-72
2022/10/27 05:15:36;;;;;;;4.43;2.10;;;15.50;99.90;;;;;;2082551;28;20443;-72
2022/10/27 05:16:37;;;;;;;5.57;2.10;;;15.50;99.90;;;;;;2085573;28;20108;-72
2022/10/27 05:17:38;;;;;;;3.00;1.75;;;15.50;99.90;;;;;;2084867;28;20021;-72
2022/10/27 05:18:38;;;;;;;7.78;2.45;;;15.50;99.90;;;;;;2084212;28;20026;-72
2022/10/27 05:19:39;;;;;;;4.40;2.08;;;15.50;99.90;;;;;;2082769;28;20034;-72
2022/10/27 05:20:39;;;;;;;5.65;1.75;;;15.50;99.90;;;;;;2083875;28;20103;-72
2022/10/27 05:21:40;;;;;;;10.23;2.20;;;15.50;99.90;;;;;;2084056;28;20025;-72
2022/10/27 05:22:40;;;;;;;5.35;2.25;;;15.50;99.90;;;;;;2081511;28;20583;-72
2022/10/27 05:23:41;;;;;;;6.28;1.90;;;15.50;99.90;;;;;;2084436;28;20036;-72
2022/10/27 05:24:41;;;;;;;7.20;2.45;;;15.50;99.90;;;;;;2085257;28;20059;-72
2022/10/27 05:25:42;;;;;;;7.72;2.25;;;15.50;99.90;;;;;;2081484;28;20404;-72
2022/10/27 05:26:42;;;;;;;5.28;1.92;;;15.50;99.90;;;;;;2084778;28;20040;-72
2022/10/27 05:27:43;;;;;;;7.40;1.77;;;15.50;99.90;;;;;;2085898;28;20087;-72
2022/10/27 05:28:43;;;;;;;5.30;1.90;;;15.50;99.90;;;;;;2085289;28;20556;-72
2022/10/27 05:29:44;;;;;;;4.60;2.28;;;15.50;99.90;;;;;;2088802;28;20024;-72